Time;durP1;ratioP1;P1;durP2;ratioP2;P2;SDS_P1;SDS_P2;PMS_P1;PMS_P2;Temp;Humidity;BMP_temperature;BMP_pressure;BME280_temperature;BME280_humidity;BME280_pressure;Samples;Min_cycle;Max_cycle;Signal;HPM_P1;HPM_P2
2023/05/22 00:00:22;;;;;;;;;;;15.60;99.90;;;;;;6154165;23;19924;-75
2023/05/22 00:02:49;;;;;;;;;;;15.60;99.90;;;;;;6126694;23;19975;-75
2023/05/22 00:05:17;;;;;;;;;;;15.60;99.90;;;;;;6153940;23;19921;-75
2023/05/22 00:07:42;;;;;;;;;;;15.60;99.90;;;;;;6154366;23;19997;-75
2023/05/22 00:10:08;;;;;;;;;;;15.60;99.90;;;;;;6151927;23;19964;-75
2023/05/22 00:12:34;;;;;;;;;;;15.50;99.90;;;;;;6154235;23;20230;-76
2023/05/22 00:15:00;;;;;;;;;;;15.60;99.90;;;;;;6127430;23;19916;-75
2023/05/22 00:17:25;;;;;;;;;;;15.60;99.90;;;;;;6153450;23;20230;-75
2023/05/22 00:19:54;;;;;;;;;;;15.60;99.90;;;;;;6127258;23;19925;-75
2023/05/22 00:22:20;;;;;;;;;;;15.60;99.90;;;;;;6154291;23;19927;-75
2023/05/22 00:24:45;;;;;;;;;;;15.80;99.90;;;;;;6127144;23;19992;-75
2023/05/22 00:27:11;;;;;;;;;;;15.80;99.90;;;;;;6153374;23;19920;-76
2023/05/22 00:29:37;;;;;;;;;;;15.80;99.90;;;;;;6127650;23;19924;-75
2023/05/22 00:32:02;;;;;;;;;;;15.80;99.90;;;;;;6127183;23;20397;-76
2023/05/22 00:34:28;;;;;;;;;;;15.80;99.90;;;;;;6153910;23;19921;-76
2023/05/22 00:36:54;;;;;;;;;;;15.80;99.90;;;;;;6154031;23;19952;-77
2023/05/22 00:39:19;;;;;;;;;;;15.80;99.90;;;;;;6152925;23;19951;-76
2023/05/22 00:41:45;;;;;;;;;;;15.80;99.90;;;;;;6127735;23;19920;-74
2023/05/22 00:44:10;;;;;;;;;;;15.80;99.90;;;;;;6127271;23;19921;-74
2023/05/22 00:46:36;;;;;;;;;;;15.80;99.90;;;;;;6127150;23;20258;-74
2023/05/22 00:49:02;;;;;;;;;;;15.80;99.90;;;;;;6153254;23;19920;-74
2023/05/22 00:51:28;;;;;;;;;;;15.90;99.90;;;;;;6153000;23;19916;-75
2023/05/22 00:53:53;;;;;;;;;;;15.90;99.90;;;;;;6153229;23;19995;-74
2023/05/22 00:56:20;;;;;;;;;;;15.90;99.90;;;;;;6153823;23;19925;-75
2023/05/22 00:58:46;;;;;;;;;;;15.90;99.90;;;;;;6152958;23;20000;-75
2023/05/22 01:01:12;;;;;;;;;;;15.90;99.90;;;;;;6127441;23;19956;-74
2023/05/22 01:03:43;;;;;;;;;;;15.90;99.90;;;;;;6127401;23;19924;-75
2023/05/22 01:06:12;;;;;;;;;;;15.90;99.90;;;;;;6152594;23;20254;-75
2023/05/22 01:08:39;;;;;;;;;;;15.90;99.90;;;;;;6127830;23;19928;-74
2023/05/22 01:11:20;;;;;;;;;;;15.90;99.90;;;;;;6127354;23;19928;-74
2023/05/22 01:13:49;;;;;;;;;;;16.00;99.90;;;;;;6126931;23;19967;-74
2023/05/22 01:16:21;;;;;;;;;;;16.00;99.90;;;;;;6127548;23;20000;-74
2023/05/22 01:19:00;;;;;;;;;;;16.00;99.90;;;;;;6127856;23;20356;-74
2023/05/22 01:21:49;;;;;;;;;;;16.00;99.90;;;;;;6153061;23;19921;-75
2023/05/22 01:24:27;;;;;;;;;;;16.00;99.90;;;;;;6127468;23;19921;-74
2023/05/22 01:27:13;;;;;;;;;;;16.00;99.90;;;;;;6152184;23;19979;-74
2023/05/22 01:29:42;;;;;;;;;;;16.00;99.90;;;;;;6153892;23;19944;-74
2023/05/22 01:32:09;;;;;;;;;;;16.00;99.90;;;;;;6153241;23;20264;-74
2023/05/22 01:34:37;;;;;;;;;;;15.90;99.90;;;;;;6126588;23;19921;-74
2023/05/22 01:37:03;;;;;;;;;;;15.90;99.90;;;;;;6153407;23;19967;-74
2023/05/22 01:39:29;;;;;;;;;;;15.80;99.90;;;;;;6127393;23;19920;-74
2023/05/22 01:41:55;;;;;;;;;;;15.80;99.90;;;;;;6126705;23;19943;-74
2023/05/22 01:44:22;;;;;;;;;;;15.80;99.90;;;;;;6153588;23;19920;-74
2023/05/22 01:46:47;;;;;;;;;;;15.70;99.90;;;;;;6153029;23;19920;-74
2023/05/22 01:49:13;;;;;;;;;;;15.70;99.90;;;;;;6153240;23;20301;-74
2023/05/22 01:51:48;;;;;;;;;;;15.80;99.90;;;;;;6153784;23;19916;-74
2023/05/22 01:54:22;;;;;;;;;;;15.80;99.90;;;;;;6127860;23;19924;-74
2023/05/22 01:56:54;;;;;;;;;;;15.80;99.90;;;;;;6126816;23;19924;-73
2023/05/22 01:59:24;;;;;;;;;;;15.80;99.90;;;;;;6154553;23;20010;-74
2023/05/22 02:01:50;;;;;;;;;;;15.80;99.90;;;;;;6129270;23;19921;-73
2023/05/22 02:04:17;;;;;;;;;;;15.80;99.90;;;;;;6161387;23;20000;-74
2023/05/22 02:06:43;;;;;;;;;;;15.80;99.90;;;;;;6135153;23;20257;-74
2023/05/22 02:09:09;;;;;;;;;;;15.70;99.90;;;;;;6130758;23;20396;-74
2023/05/22 02:11:36;;;;;;;;;;;15.70;99.90;;;;;;6129691;23;20348;-74
2023/05/22 02:14:02;;;;;;;;;;;15.70;99.90;;;;;;6129123;23;19920;-74
2023/05/22 02:16:29;;;;;;;;;;;15.60;99.90;;;;;;6128417;23;19920;-75
2023/05/22 02:19:05;;;;;;;;;;;15.60;99.90;;;;;;6154981;23;19995;-74
2023/05/22 02:21:34;;;;;;;;;;;15.60;99.90;;;;;;6129265;23;19920;-74
2023/05/22 02:24:03;;;;;;;;;;;15.60;99.90;;;;;;6153429;23;19956;-73
2023/05/22 02:26:28;;;;;;;;;;;15.60;99.90;;;;;;6154874;23;19928;-74
2023/05/22 02:28:54;;;;;;;;;;;15.60;99.90;;;;;;6154809;23;19920;-76
2023/05/22 02:31:19;;;;;;;;;;;15.70;99.90;;;;;;6128061;23;19917;-76
2023/05/22 02:33:45;;;;;;;;;;;15.70;99.90;;;;;;6155375;23;19948;-76
2023/05/22 02:36:11;;;;;;;;;;;15.80;99.90;;;;;;6128338;23;20395;-75
2023/05/22 02:38:37;;;;;;;;;;;15.80;99.90;;;;;;6154299;23;19975;-75
2023/05/22 02:41:03;;;;;;;;;;;15.80;99.90;;;;;;6154421;23;19920;-76
2023/05/22 02:43:28;;;;;;;;;;;15.80;99.90;;;;;;6154959;23;19927;-76
2023/05/22 02:45:54;;;;;;;;;;;15.80;99.90;;;;;;6127521;23;19924;-75
2023/05/22 02:48:20;;;;;;;;;;;15.80;99.90;;;;;;6128898;23;20034;-76
2023/05/22 02:50:47;;;;;;;;;;;15.70;99.90;;;;;;6129032;23;20326;-76
2023/05/22 02:53:14;;;;;;;;;;;15.70;99.90;;;;;;6154029;23;19920;-75
2023/05/22 02:55:40;;;;;;;;;;;15.60;99.90;;;;;;6155158;23;19940;-74
2023/05/22 02:58:10;;;;;;;;;;;15.60;99.90;;;;;;6153168;23;19921;-76
2023/05/22 03:00:36;;;;;;;;;;;15.50;99.90;;;;;;6129342;23;19920;-75
2023/05/22 03:03:02;;;;;;;;;;;15.50;99.90;;;;;;6154311;23;20365;-76
2023/05/22 03:05:28;;;;;;;;;;;15.50;99.90;;;;;;6154111;23;19921;-75
2023/05/22 03:07:53;;;;;;;;;;;15.50;99.90;;;;;;6128571;23;19917;-75
2023/05/22 03:10:19;;;;;;;;;;;15.40;99.90;;;;;;6128640;23;19921;-76
2023/05/22 03:12:44;;;;;;;;;;;15.40;99.90;;;;;;6153835;23;19920;-76
2023/05/22 03:15:10;;;;;;;;;;;15.30;99.90;;;;;;6153898;23;19916;-75
2023/05/22 03:17:35;;;;;;;;;;;15.30;99.90;;;;;;6154852;23;19925;-75
2023/05/22 03:20:04;;;;;;;;;;;15.30;99.90;;;;;;6153613;23;20288;-75
2023/05/22 03:22:30;;;;;;;;;;;15.20;99.90;;;;;;6154797;23;19920;-75
2023/05/22 03:24:55;;;;;;;;;;;15.10;99.90;;;;;;6128265;23;19921;-75
2023/05/22 03:27:21;;;;;;;;;;;15.10;99.90;;;;;;6127440;23;19959;-75
2023/05/22 03:29:46;;;;;;;;;;;15.00;99.90;;;;;;6128428;23;20002;-75
2023/05/22 03:32:12;;;;;;;;;;;15.00;99.90;;;;;;6154107;23;19943;-75
2023/05/22 03:34:37;;;;;;;;;;;14.90;99.90;;;;;;6153643;23;20300;-75
2023/05/22 03:37:03;;;;;;;;;;;14.90;99.90;;;;;;6153913;23;20001;-75
2023/05/22 03:39:29;;;;;;;;;;;14.80;99.90;;;;;;6154340;23;19925;-75
2023/05/22 03:41:54;;;;;;;;;;;14.80;99.90;;;;;;6126823;23;19931;-75
2023/05/22 03:44:20;;;;;;;;;;;14.70;99.90;;;;;;6128465;23;20388;-76
2023/05/22 03:46:45;;;;;;;;;;;14.70;99.90;;;;;;6154505;23;19967;-75
2023/05/22 03:49:11;;;;;;;;;;;14.70;99.90;;;;;;6152981;23;19916;-76
2023/05/22 03:51:36;;;;;;;;;;;14.70;99.90;;;;;;6154402;23;19925;-75
2023/05/22 03:54:02;;;;;;;;;;;14.70;99.90;;;;;;6127879;23;20008;-75
2023/05/22 03:56:27;;;;;;;;;;;14.70;99.90;;;;;;6153347;23;19924;-75
2023/05/22 03:58:53;;;;;;;;;;;14.70;99.90;;;;;;6127510;23;19992;-75
2023/05/22 04:01:19;;;;;;;;;;;14.70;99.90;;;;;;6127286;23;19970;-75
2023/05/22 04:03:44;;;;;;;;;;;14.70;99.90;;;;;;6154123;23;20000;-75
2023/05/22 04:06:12;;;;;;;;;;;14.70;99.90;;;;;;6127991;23;19974;-75
2023/05/22 04:08:38;;;;;;;;;;;14.70;99.90;;;;;;6153221;23;20026;-75
2023/05/22 04:11:04;;;;;;;;;;;14.80;99.90;;;;;;6154034;23;19921;-74
2023/05/22 04:13:32;;;;;;;;;;;14.70;99.90;;;;;;6154107;23;19927;-74
2023/05/22 04:15:58;;;;;;;;;;;14.90;99.90;;;;;;6152902;23;19967;-75
2023/05/22 04:18:23;;;;;;;;;;;14.90;99.90;;;;;;6127501;23;19929;-73
2023/05/22 04:20:50;;;;;;;;;;;14.90;99.90;;;;;;6127628;23;19921;-75
2023/05/22 04:23:16;;;;;;;;;;;14.90;99.90;;;;;;6152739;23;20402;-74
2023/05/22 04:25:42;;;;;;;;;;;15.00;99.90;;;;;;6153663;23;19944;-75
2023/05/22 04:28:08;;;;;;;;;;;15.00;99.90;;;;;;6152299;23;20249;-75
2023/05/22 04:30:38;;;;;;;;;;;15.00;99.90;;;;;;6153157;23;19968;-75
2023/05/22 04:33:04;;;;;;;;;;;15.20;99.90;;;;;;6125298;23;20350;-74
2023/05/22 04:35:30;;;;;;;;;;;15.00;99.90;;;;;;6127919;23;19975;-74
2023/05/22 04:37:56;;;;;;;;;;;15.10;99.90;;;;;;6126293;23;20302;-75
2023/05/22 04:40:21;;;;;;;;;;;15.10;99.90;;;;;;6127520;23;20253;-74
2023/05/22 04:42:47;;;;;;;;;;;15.20;99.90;;;;;;6153383;23;19963;-74
2023/05/22 04:45:12;;;;;;;;;;;15.20;99.90;;;;;;6153150;23;19920;-77
2023/05/22 04:47:40;;;;;;;;;;;15.20;99.90;;;;;;6153669;23;19931;-79
2023/05/22 04:50:06;;;;;;;;;;;15.10;99.90;;;;;;6126843;23;20221;-76
2023/05/22 04:52:31;;;;;;;;;;;15.10;99.90;;;;;;6153143;23;20373;-75
2023/05/22 04:54:57;;;;;;;;;;;15.10;99.90;;;;;;6127106;23;19951;-75
2023/05/22 04:57:24;;;;;;;;;;;15.10;99.90;;;;;;6153539;23;19927;-75
2023/05/22 04:59:50;;;;;;;;;;;15.10;99.90;;;;;;6123110;23;19971;-75
2023/05/22 05:02:15;;;;;;;;;;;15.10;99.90;;;;;;6124740;23;19916;-75
2023/05/22 05:04:42;;;;;;;;;;;15.20;99.90;;;;;;6152938;23;19963;-74
2023/05/22 05:07:07;;;;;;;;;;;15.20;99.90;;;;;;6151665;23;19924;-79
2023/05/22 05:09:33;;;;;;;;;;;15.20;99.90;;;;;;6127194;23;19924;-83
2023/05/22 05:11:58;;;;;;;;;;;15.30;99.90;;;;;;6152553;23;20361;-80
2023/05/22 05:14:27;;;;;;;;;;;15.30;99.90;;;;;;6153150;23;19951;-78
2023/05/22 05:16:53;;;;;;;;;;;15.40;99.90;;;;;;6127367;23;19921;-84
2023/05/22 05:19:20;;;;;;;;;;;15.40;99.90;;;;;;6153019;23;19988;-81
2023/05/22 05:21:46;;;;;;;;;;;15.40;99.90;;;;;;6127296;23;19992;-81
2023/05/22 05:24:14;;;;;;;;;;;15.40;99.90;;;;;;6126640;23;19999;-79
2023/05/22 05:26:40;;;;;;;;;;;15.40;99.90;;;;;;6127535;23;19925;-79
2023/05/22 05:29:06;;;;;;;;;;;15.40;99.90;;;;;;6153944;23;19928;-85
2023/05/22 05:31:31;;;;;;;;;;;15.50;99.90;;;;;;6127766;23;20281;-75
2023/05/22 05:33:57;;;;;;;;;;;15.50;99.90;;;;;;6152969;23;19921;-80
2023/05/22 05:36:23;;;;;;;;;;;15.90;99.90;;;;;;6127894;23;19920;-75
2023/05/22 05:38:48;;;;;;;;;;;15.50;99.90;;;;;;6153558;23;19917;-73
2023/05/22 05:41:14;;;;;;;;;;;15.60;99.90;;;;;;6159037;23;20348;-74
2023/05/22 05:43:40;;;;;;;;;;;15.70;99.90;;;;;;6161944;23;20007;-77
2023/05/22 05:46:05;;;;;;;;;;;15.70;99.90;;;;;;6132945;23;19920;-76
2023/05/22 05:48:31;;;;;;;;;;;15.70;99.90;;;;;;6153596;23;19917;-82
2023/05/22 05:50:56;;;;;;;;;;;15.70;99.90;;;;;;6154266;23;19927;-76
2023/05/22 05:53:22;;;;;;;;;;;15.70;99.90;;;;;;6126595;23;19956;-78
2023/05/22 05:55:48;;;;;;;;;;;15.80;99.90;;;;;;6151712;23;20344;-77
2023/05/22 05:58:13;;;;;;;;;;;15.70;99.90;;;;;;6154049;23;19920;-77
2023/05/22 06:00:41;;;;;;;;;;;15.70;99.90;;;;;;6152828;23;19921;-78
2023/05/22 06:03:06;;;;;;;;;;;15.70;99.90;;;;;;6149794;23;19921;-78
2023/05/22 06:05:32;;;;;;;;;;;15.80;99.90;;;;;;6151298;23;19999;-78
2023/05/22 06:07:57;;;;;;;;;;;15.80;99.90;;;;;;6152154;23;19947;-78
2023/05/22 06:10:23;;;;;;;;;;;15.80;99.90;;;;;;6153190;23;19921;-77
2023/05/22 06:12:48;;;;;;;;;;;15.80;99.90;;;;;;6153402;23;19921;-79
2023/05/22 06:15:14;;;;;;;;;;;15.80;99.90;;;;;;6126721;23;20253;-79
2023/05/22 06:17:40;;;;;;;;;;;15.80;99.90;;;;;;6155373;23;20241;-78
2023/05/22 06:20:07;;;;;;;;;;;15.80;99.90;;;;;;6128770;23;19998;-78
2023/05/22 06:22:32;;;;;;;;;;;15.90;99.90;;;;;;6127883;23;19921;-77
2023/05/22 06:24:58;;;;;;;;;;;15.90;99.90;;;;;;6154884;23;19991;-78
2023/05/22 06:27:23;;;;;;;;;;;15.80;99.90;;;;;;6128936;23;19920;-76
2023/05/22 06:29:49;;;;;;;;;;;15.90;99.90;;;;;;6153580;23;19924;-78
2023/05/22 06:32:18;;;;;;;;;;;15.80;99.90;;;;;;6155174;23;19928;-78
2023/05/22 06:34:45;;;;;;;;;;;15.80;99.90;;;;;;6155402;23;19921;-78
2023/05/22 06:37:11;;;;;;;;;;;15.80;99.90;;;;;;6153957;23;19920;-79
2023/05/22 06:39:37;;;;;;;;;;;15.80;99.90;;;;;;6128558;23;19928;-78
2023/05/22 06:42:03;;;;;;;;;;;15.70;99.90;;;;;;6128827;23;20004;-78
2023/05/22 06:44:28;;;;;;;;;;;15.60;99.90;;;;;;6127579;23;19924;-78
2023/05/22 06:46:54;;;;;;;;;;;15.60;99.90;;;;;;6154802;23;20442;-78
2023/05/22 06:49:19;;;;;;;;;;;15.60;99.90;;;;;;6129118;23;19967;-79
2023/05/22 06:51:45;;;;;;;;;;;15.70;99.90;;;;;;6154138;23;19920;-77
2023/05/22 06:54:12;;;;;;;;;;;15.70;99.90;;;;;;6158532;23;20342;-79
2023/05/22 06:56:38;;;;;;;;;;;15.60;99.90;;;;;;6161069;23;19921;-78
2023/05/22 06:59:04;;;;;;;;;;;15.60;99.90;;;;;;6134078;23;19928;-77
2023/05/22 07:01:30;;;;;;;;;;;15.60;99.90;;;;;;6160680;23;20322;-78
2023/05/22 07:04:03;;;;;;;;;;;15.70;99.90;;;;;;6132622;23;19944;-78
2023/05/22 07:06:37;;;;;;;;;;;15.80;99.90;;;;;;6159431;23;20342;-78
2023/05/22 07:09:05;;;;;;;;;;;15.90;99.90;;;;;;6160219;23;19924;-78
2023/05/22 07:11:31;;;;;;;;;;;16.00;99.90;;;;;;6131483;23;19936;-78
2023/05/22 07:13:56;;;;;;;;;;;16.10;99.90;;;;;;6154340;23;20360;-79
2023/05/22 07:16:22;;;;;;;;;;;16.30;99.90;;;;;;6154372;23;19921;-79
2023/05/22 07:18:48;;;;;;;;;;;16.40;99.90;;;;;;6153460;23;19921;-81
2023/05/22 07:21:14;;;;;;;;;;;16.50;99.90;;;;;;6154430;23;19928;-77
2023/05/22 07:23:39;;;;;;;;;;;16.70;99.90;;;;;;6154977;23;19921;-79
2023/05/22 07:26:08;;;;;;;;;;;16.80;99.90;;;;;;6126912;23;19948;-79
2023/05/22 07:28:34;;;;;;;;;;;16.90;99.90;;;;;;6154817;23;19947;-79
2023/05/22 07:31:00;;;;;;;;;;;17.20;99.90;;;;;;6154501;23;20328;-82
2023/05/22 07:33:25;;;;;;;;;;;17.30;99.90;;;;;;6127269;23;19923;-80
2023/05/22 07:35:51;;;;;;;;;;;17.50;99.90;;;;;;6127058;23;19928;-81
2023/05/22 07:38:17;;;;;;;;;;;17.60;99.90;;;;;;6128654;23;20055;-80
2023/05/22 07:40:42;;;;;;;;;;;17.70;99.90;;;;;;6127316;23;19979;-80
2023/05/22 07:43:08;;;;;;;;;;;17.80;99.90;;;;;;6153833;23;20293;-78
2023/05/22 07:45:34;;;;;;;;;;;17.90;99.90;;;;;;6154102;23;20031;-79
2023/05/22 07:48:00;;;;;;;;;;;18.20;99.90;;;;;;6152505;23;19920;-78
2023/05/22 07:50:26;;;;;;;;;;;18.20;99.90;;;;;;6128275;23;19927;-80
2023/05/22 07:52:52;;;;;;;;;;;18.40;99.90;;;;;;6128402;23;19952;-80
2023/05/22 07:55:17;;;;;;;;;;;18.60;99.90;;;;;;6127215;23;19924;-80
2023/05/22 07:57:43;;;;;;;;;;;19.00;99.90;;;;;;6127783;23;19920;-80
2023/05/22 08:00:12;;;;;;;;;;;19.00;99.90;;;;;;6153727;23;19999;-80
2023/05/22 08:02:38;;;;;;;;;;;18.80;99.90;;;;;;6152977;23;20292;-77
2023/05/22 08:05:05;;;;;;;;;;;18.70;99.90;;;;;;6127718;23;19924;-78
2023/05/22 08:07:31;;;;;;;;;;;18.50;99.90;;;;;;6153498;23;19921;-79
2023/05/22 08:09:57;;;;;;;;;;;18.30;99.90;;;;;;6154185;23;20330;-78
2023/05/22 08:12:23;;;;;;;;;;;18.10;99.90;;;;;;6153962;23;20031;-79
2023/05/22 08:15:13;;;;;;;;;;;18.00;99.90;;;;;;6152950;23;19972;-79
2023/05/22 08:17:39;;;;;;;;;;;18.00;99.90;;;;;;6151461;23;20273;-79
2023/05/22 08:20:05;;;;;;;;;;;18.00;99.90;;;;;;6153575;23;19921;-78
2023/05/22 08:22:31;;;;;;;;;;;18.00;99.90;;;;;;6127085;23;19975;-77
2023/05/22 08:24:56;;;;;;;;;;;18.00;99.90;;;;;;6153607;23;19924;-78
2023/05/22 08:27:22;;;;;;;;;;;18.00;99.90;;;;;;6153914;23;19921;-77
2023/05/22 08:29:47;;;;;;;;;;;18.00;99.90;;;;;;6126842;23;19920;-79
2023/05/22 08:32:13;;;;;;;;;;;18.30;99.90;;;;;;6127347;23;19921;-79
2023/05/22 08:34:41;;;;;;;;;;;18.10;99.90;;;;;;6153969;23;20345;-79
2023/05/22 08:37:08;;;;;;;;;;;18.10;99.90;;;;;;6152999;23;19984;-79
2023/05/22 08:39:36;;;;;;;;;;;18.10;99.90;;;;;;6153991;23;19986;-79
2023/05/22 08:42:03;;;;;;;;;;;18.10;99.90;;;;;;6153335;23;19984;-78
2023/05/22 08:44:31;;;;;;;;;;;18.20;99.90;;;;;;6152864;23;20000;-79
2023/05/22 08:46:58;;;;;;;;;;;18.20;99.90;;;;;;6127876;23;20046;-79
2023/05/22 08:49:24;;;;;;;;;;;18.50;99.90;;;;;;6127812;23;20348;-79
2023/05/22 08:51:55;;;;;;;;;;;19.40;99.90;;;;;;6152889;23;19920;-78
2023/05/22 08:54:21;;;;;;;;;;;18.60;99.90;;;;;;6154013;23;19921;-77
2023/05/22 08:56:48;;;;;;;;;;;18.80;99.90;;;;;;6153157;23;20326;-79
2023/05/22 08:59:14;;;;;;;;;;;18.90;99.90;;;;;;6127308;23;19920;-78
2023/05/22 09:01:40;;;;;;;;;;;19.90;99.90;;;;;;6153874;23;19920;-79
2023/05/22 09:04:05;;;;;;;;;;;20.20;99.90;;;;;;6151551;23;20062;-79
2023/05/22 09:06:31;;;;;;;;;;;20.30;99.90;;;;;;6153748;23;19921;-78
2023/05/22 09:09:00;;;;;;;;;;;20.50;99.90;;;;;;6127043;23;19974;-79
2023/05/22 09:11:26;;;;;;;;;;;20.50;99.90;;;;;;6153151;23;19920;-79
2023/05/22 09:13:51;;;;;;;;;;;20.70;99.90;;;;;;6126898;23;19996;-78
2023/05/22 09:16:17;;;;;;;;;;;20.80;99.90;;;;;;6153523;23;19944;-79
2023/05/22 09:18:46;;;;;;;;;;;20.80;99.90;;;;;;6149602;23;20242;-79
2023/05/22 09:21:13;;;;;;;;;;;20.60;99.90;;;;;;6151677;23;19924;-78
2023/05/22 09:23:39;;;;;;;;;;;20.50;99.90;;;;;;6131387;23;19927;-79
2023/05/22 09:26:05;;;;;;;;;;;20.40;99.90;;;;;;6130986;23;19924;-79
2023/05/22 09:28:37;;;;;;;;;;;20.40;99.90;;;;;;6128523;23;19919;-78
2023/05/22 09:31:23;;;;;;;;;;;20.40;99.90;;;;;;6131119;23;20351;-79
2023/05/22 09:33:49;;;;;;;;;;;20.40;99.90;;;;;;6154947;23;19943;-79
2023/05/22 09:36:15;;;;;;;;;;;20.40;99.90;;;;;;6154243;23;20329;-78
2023/05/22 09:38:41;;;;;;;;;;;20.40;99.90;;;;;;6127686;23;19917;-79
2023/05/22 09:41:07;;;;;;;;;;;20.30;99.90;;;;;;6152594;23;19931;-79
2023/05/22 09:43:32;;;;;;;;;;;20.30;99.90;;;;;;6153348;23;19928;-79
2023/05/22 09:46:03;;;;;;;;;;;20.10;99.90;;;;;;6152308;23;19921;-78
2023/05/22 09:48:37;;;;;;;;;;;20.20;99.90;;;;;;6127533;23;19924;-79
2023/05/22 09:51:03;;;;;;;;;;;20.10;99.90;;;;;;6126916;23;19924;-78
2023/05/22 09:53:33;;;;;;;;;;;20.20;99.90;;;;;;6152765;23;19925;-79
2023/05/22 09:55:59;;;;;;;;;;;20.20;99.90;;;;;;6153188;23;19966;-79
2023/05/22 09:58:29;;;;;;;;;;;20.30;99.90;;;;;;6152959;23;19948;-79
2023/05/22 10:00:55;;;;;;;;;;;20.40;99.90;;;;;;6152175;23;19924;-79
2023/05/22 10:03:21;;;;;;;;;;;20.50;99.90;;;;;;6127226;23;19917;-79
2023/05/22 10:05:49;;;;;;;;;;;20.50;99.90;;;;;;6153632;23;19954;-79
2023/05/22 10:08:16;;;;;;;;;;;21.10;99.90;;;;;;6152438;23;19933;-79
2023/05/22 10:10:43;;;;;;;;;;;21.20;99.90;;;;;;6153509;23;20292;-79
2023/05/22 10:13:09;;;;;;;;;;;20.60;99.90;;;;;;6153090;23;19928;-79
2023/05/22 10:15:35;;;;;;;;;;;20.70;99.90;;;;;;6152653;23;20256;-79
2023/05/22 10:18:01;;;;;;;;;;;20.80;99.90;;;;;;6153129;23;19948;-79
2023/05/22 10:20:29;;;;;;;;;;;21.10;99.90;;;;;;6153372;23;19921;-79
2023/05/22 10:22:54;;;;;;;;;;;21.30;99.90;;;;;;6152386;23;20400;-78
2023/05/22 10:25:24;;;;;;;;;;;21.50;99.90;;;;;;6127862;23;20008;-78
2023/05/22 10:27:53;;;;;;;;;;;21.70;99.90;;;;;;6154836;23;20330;-78
2023/05/22 10:30:31;;;;;;;;;;;21.80;99.90;;;;;;6128122;23;20003;-79
2023/05/22 10:33:15;;;;;;;;;;;22.10;99.90;;;;;;6155414;23;19927;-78
2023/05/22 10:35:58;;;;;;;;;;;22.90;99.90;;;;;;6154215;23;19921;-79
2023/05/22 10:38:26;;;;;;;;;;;23.40;99.90;;;;;;6128866;23;19921;-76
2023/05/22 10:40:52;;;;;;;;;;;23.50;99.90;;;;;;6128738;23;19991;-77
2023/05/22 10:43:20;;;;;;;;;;;23.80;99.90;;;;;;6153837;23;19971;-79
2023/05/22 10:45:45;;;;;;;;;;;23.90;99.90;;;;;;6155148;23;20368;-77
2023/05/22 10:48:11;;;;;;;;;;;23.80;99.90;;;;;;6127333;23;19921;-76
2023/05/22 10:50:37;;;;;;;;;;;23.70;99.90;;;;;;6128484;23;20278;-78
2023/05/22 10:53:21;;;;;;;;;;;24.00;99.90;;;;;;6155005;23;19921;-79
2023/05/22 10:55:50;;;;;;;;;;;24.50;99.90;;;;;;6155182;23;19927;-81
2023/05/22 10:58:16;;;;;;;;;;;24.70;99.90;;;;;;6128057;23;19920;-79
2023/05/22 11:00:42;;;;;;;;;;;25.00;99.90;;;;;;6155180;23;19995;-80
2023/05/22 11:03:08;;;;;;;;;;;25.10;99.90;;;;;;6128324;23;19931;-77
2023/05/22 11:05:38;;;;;;;;;;;25.20;99.90;;;;;;6154028;23;19924;-78
2023/05/22 11:08:10;;;;;;;;;;;25.60;99.90;;;;;;6154573;23;19920;-77
2023/05/22 11:10:52;;;;;;;;;;;25.60;99.90;;;;;;6127801;23;19924;-74
2023/05/22 11:13:18;;;;;;;;;;;25.60;99.90;;;;;;6128545;23;19928;-75
2023/05/22 11:15:47;;;;;;;;;;;25.40;99.90;;;;;;6128345;23;19920;-72
2023/05/22 11:18:15;;;;;;;;;;;25.30;99.90;;;;;;6127771;23;20333;-70
2023/05/22 11:20:42;;;;;;;;;;;25.10;99.90;;;;;;6128531;23;19925;-71
2023/05/22 11:23:09;;;;;;;;;;;25.00;99.90;;;;;;6154518;23;20239;-70
2023/05/22 11:25:36;;;;;;;;;;;24.90;99.90;;;;;;6153632;23;19924;-73
2023/05/22 11:28:11;;;;;;;;;;;25.00;99.90;;;;;;6154157;23;19920;-73
2023/05/22 11:30:37;;;;;;;;;;;25.10;99.90;;;;;;6128418;23;19921;-70
2023/05/22 11:33:03;;;;;;;;;;;25.30;99.90;;;;;;6153131;23;20253;-72
2023/05/22 11:35:29;;;;;;;;;;;25.30;99.90;;;;;;6154484;23;19921;-71
2023/05/22 11:37:55;;;;;;;;;;;24.90;99.90;;;;;;6153622;23;19928;-71
2023/05/22 11:40:23;;;;;;;;;;;25.00;99.90;;;;;;6122041;23;19921;-71
2023/05/22 11:42:48;;;;;;;;;;;25.00;99.90;;;;;;6124609;23;19956;-73
2023/05/22 11:45:14;;;;;;;;;;;25.00;99.90;;;;;;6125383;23;19928;-73
2023/05/22 11:47:40;;;;;;;;;;;24.80;99.90;;;;;;6123810;23;19921;-73
2023/05/22 11:50:09;;;;;;;;;;;24.50;99.90;;;;;;6124425;23;19921;-72
2023/05/22 11:52:35;;;;;;;;;;;24.80;99.90;;;;;;6124151;23;19992;-72
2023/05/22 11:55:04;;;;;;;;;;;24.50;99.90;;;;;;6098073;23;19965;-73
2023/05/22 11:57:30;;;;;;;;;;;24.80;99.90;;;;;;6124760;23;20346;-72
2023/05/22 11:59:57;;;;;;;;;;;24.70;99.90;;;;;;6123518;23;19957;-71
2023/05/22 12:02:22;;;;;;;;;;;24.80;99.90;;;;;;6124790;23;19925;-69
2023/05/22 12:04:52;;;;;;;;;;;24.70;99.90;;;;;;6098293;23;20219;-70
2023/05/22 12:07:18;;;;;;;;;;;24.40;99.90;;;;;;6097840;23;19927;-71
2023/05/22 12:09:43;;;;;;;;;;;24.20;99.90;;;;;;6124205;23;19945;-72
2023/05/22 12:12:12;;;;;;;;;;;24.50;99.90;;;;;;6098111;23;20382;-72
2023/05/22 12:14:43;;;;;;;;;;;24.50;99.90;;;;;;6097535;23;19920;-72
2023/05/22 12:17:10;;;;;;;;;;;24.60;99.90;;;;;;6098297;23;19917;-71
2023/05/22 12:19:38;;;;;;;;;;;24.50;99.90;;;;;;6124520;23;19927;-72
2023/05/22 12:22:04;;;;;;;;;;;24.50;99.90;;;;;;6123139;23;19984;-72
2023/05/22 12:24:37;;;;;;;;;;;24.60;99.90;;;;;;6123974;23;20317;-72
2023/05/22 12:27:06;;;;;;;;;;;24.50;99.90;;;;;;6124568;23;19921;-73
2023/05/22 12:29:33;;;;;;;;;;;24.50;99.90;;;;;;6097279;23;19928;-74
2023/05/22 12:32:02;;;;;;;;;;;24.20;99.90;;;;;;6123970;23;20251;-75
2023/05/22 12:34:31;;;;;;;;;;;24.30;99.90;;;;;;6098320;23;19995;-75
2023/05/22 12:36:57;;;;;;;;;;;24.30;99.90;;;;;;6123221;23;19983;-75
2023/05/22 12:39:22;;;;;;;;;;;23.70;99.90;;;;;;6124613;23;19960;-74
2023/05/22 12:41:48;;;;;;;;;;;23.90;99.90;;;;;;6122905;23;19928;-73
2023/05/22 12:44:14;;;;;;;;;;;23.60;99.90;;;;;;6125323;23;19928;-74
2023/05/22 12:46:39;;;;;;;;;;;23.70;99.90;;;;;;6124298;23;19948;-74
2023/05/22 12:49:09;;;;;;;;;;;23.40;99.90;;;;;;6122730;23;19925;-74
2023/05/22 12:51:35;;;;;;;;;;;23.60;99.90;;;;;;6124051;23;19921;-74
2023/05/22 12:54:00;;;;;;;;;;;23.70;99.90;;;;;;6124631;23;19972;-73
2023/05/22 12:56:27;;;;;;;;;;;23.30;99.90;;;;;;6123866;23;19921;-74
2023/05/22 12:58:53;;;;;;;;;;;23.40;99.90;;;;;;6124405;23;20353;-74
2023/05/22 13:01:18;;;;;;;;;;;23.40;99.90;;;;;;6127526;23;19921;-72
2023/05/22 13:03:45;;;;;;;;;;;23.20;99.90;;;;;;6127173;23;19921;-72
2023/05/22 13:06:11;;;;;;;;;;;23.40;99.90;;;;;;6130515;23;20007;-73
2023/05/22 13:08:37;;;;;;;;;;;23.20;99.90;;;;;;6105035;23;19913;-72
2023/05/22 13:11:02;;;;;;;;;;;23.30;99.90;;;;;;6098658;23;19921;-74
2023/05/22 13:13:28;;;;;;;;;;;23.20;99.90;;;;;;6098422;23;19913;-73
2023/05/22 13:15:54;;;;;;;;;;;23.00;99.90;;;;;;6098172;23;19925;-73
2023/05/22 13:18:19;;;;;;;;;;;23.00;99.90;;;;;;6123607;23;19944;-73
2023/05/22 13:20:45;;;;;;;;;;;22.90;99.90;;;;;;6124198;23;20225;-74
2023/05/22 13:23:10;;;;;;;;;;;23.10;99.90;;;;;;6097587;23;19928;-74
2023/05/22 13:25:36;;;;;;;;;;;23.10;99.90;;;;;;6096995;23;19932;-76
2023/05/22 13:28:02;;;;;;;;;;;23.10;99.90;;;;;;6097521;23;20361;-76
2023/05/22 13:30:28;;;;;;;;;;;23.20;99.90;;;;;;6098193;23;19961;-77
2023/05/22 13:32:54;;;;;;;;;;;23.10;99.90;;;;;;6121120;23;20305;-76
2023/05/22 13:35:19;;;;;;;;;;;23.00;99.90;;;;;;6098130;23;20270;-76
2023/05/22 13:37:45;;;;;;;;;;;22.90;99.90;;;;;;6097688;23;19928;-76
2023/05/22 13:40:11;;;;;;;;;;;22.90;99.90;;;;;;6123493;23;19925;-76
2023/05/22 13:42:37;;;;;;;;;;;22.90;99.90;;;;;;6098351;23;20353;-76
2023/05/22 13:45:05;;;;;;;;;;;22.90;99.90;;;;;;6098428;23;19921;-75
2023/05/22 13:47:34;;;;;;;;;;;22.90;99.90;;;;;;6122898;23;19999;-74
2023/05/22 13:49:59;;;;;;;;;;;23.00;99.90;;;;;;6123668;23;20000;-75
2023/05/22 13:52:25;;;;;;;;;;;23.00;99.90;;;;;;6122772;23;19995;-77
2023/05/22 13:54:51;;;;;;;;;;;22.80;99.90;;;;;;6123477;23;19948;-77
2023/05/22 13:57:16;;;;;;;;;;;22.80;99.90;;;;;;6097892;23;20232;-77
2023/05/22 13:59:43;;;;;;;;;;;22.80;99.90;;;;;;6125193;23;19921;-78
2023/05/22 14:02:11;;;;;;;;;;;22.80;99.90;;;;;;6133754;23;20337;-77
2023/05/22 14:04:40;;;;;;;;;;;22.80;99.90;;;;;;6101684;23;19932;-77
2023/05/22 14:07:06;;;;;;;;;;;22.80;99.90;;;;;;6120677;23;19928;-77
2023/05/22 14:09:31;;;;;;;;;;;23.70;99.90;;;;;;6098649;23;19921;-78
2023/05/22 14:12:00;;;;;;;;;;;22.90;99.90;;;;;;6098098;23;19949;-78
2023/05/22 14:14:25;;;;;;;;;;;22.80;99.90;;;;;;6097549;23;19923;-73